Accueil
METAR-TAF:

METAR-TAF

Aéroports :

Granges, Suisse

Aéroport de Granges

latitude: 47-10-53N, longitude: 007-24-59E, altitude: 430 m

Observation

Le bulletin a été fait il y a 23 minutes, à 09:50 UTC
Vent 3 kt de direction variable
Température 7°C
Humidité 61%
Pression 1014 hPa
Visibilité 10 km ou plus
Quelques nuages à une hauteur de 2800 ft
Nuages fragmentés à une hauteur de 10000 ft

METAR: LSZG 280950Z VRB03KT 9999 FEW028 BKN100 07/00 Q1014 NOSIG

Heure: 12:13 (10:13 UTC)

Prévision

Le bulletin a été fait il y a 40 minutes, à 09:33 UTC
Prévision valable du 28 à 09 UTC au 28 à 15 UTC
Vent 6 kt de sud/sud-ouest
Visibilité 10 km ou plus
Quelques nuages à une hauteur de 2600 ft
Nuages fragmentés à une hauteur de 9000 ft
Temporairement
du 28 à 09 UTC au 28 à 15 UTC
Quelques nuages à une hauteur de 2500 ft, Cumulus congestus.

TAF: LSZG 280933Z 2809/2815 20006KT 9999 FEW026 BKN090 TEMPO 2809/2815 FEW025TCU

Observations et prévisions météorologiques de plus de 4000 aéroports (messages METAR et TAF).

Les stations disponibles sont représentées par des disques jaunes et rouges sur la carte.

Passer la souris dessus pour voir le nom de la station.

Cliquer dessus pour voir les observations et prévisions météorologiques.

Pour changer de carte: cliquez sur les boutons verts avec une croix noire pour zoomer, sur le bouton vert avec un tiret pour effectuer un zoom arrière, ou sur les flèches vertes pour les cartes adjacentes.


METAR-TAF: